Terminal Aerodrome Forecast
Issued by NWS

Home | Current Version | Previous Version | Graphics & Text | Print | Product List | Glossary On
Versions: 1 2 3 4 5 6 7 8 9 10 11 12 13 14 15
505
FTUS42 KMHX 061141
TAFISO
TAF
KISO 061141Z 0612/0712 07011G16KT 5SM -RA SCT006 OVC025
     FM061300 07011G16KT 3SM RA OVC006
     FM061900 04010G15KT P6SM VCSH SCT003 OVC006
     FM062100 30009KT P6SM SCT003 BKN007
     FM070800 31004KT 5SM BR SCT003 BKN007
      AMD LTD TO CLD VIS AND WIND=

USA.gov is the U.S. government's official web portal to all federal, state and local government web resources and services.